createdAt,value
2022-10-31T00:00:07.729Z,0.00
2022-10-31T00:01:08.077Z,0.00
2022-10-31T00:02:08.334Z,0.00
2022-10-31T00:03:08.617Z,0.00
2022-10-31T00:04:08.877Z,0.00
2022-10-31T00:05:09.121Z,0.00
2022-10-31T00:06:09.377Z,0.00
2022-10-31T00:07:09.607Z,0.00
2022-10-31T00:08:09.856Z,0.00
2022-10-31T00:09:10.133Z,0.00
2022-10-31T00:10:10.472Z,0.00
2022-10-31T00:11:10.711Z,0.00
2022-10-31T00:12:11.073Z,0.00
2022-10-31T00:13:11.344Z,0.00
2022-10-31T00:14:11.602Z,0.00
2022-10-31T00:15:11.833Z,0.00
2022-10-31T00:16:12.192Z,0.00
2022-10-31T00:17:12.438Z,0.00
2022-10-31T00:18:12.711Z,0.00
2022-10-31T00:19:12.956Z,0.00
2022-10-31T00:20:13.202Z,0.00
2022-10-31T00:21:13.432Z,0.00
2022-10-31T00:22:13.671Z,0.00
2022-10-31T00:23:13.951Z,0.00
2022-10-31T00:24:14.182Z,0.00
2022-10-31T00:25:14.544Z,0.00
2022-10-31T00:26:14.792Z,0.00
2022-10-31T00:27:15.042Z,0.00
2022-10-31T00:28:15.322Z,0.00
2022-10-31T00:29:15.553Z,0.00
2022-10-31T00:30:15.793Z,0.00
2022-10-31T00:31:16.034Z,0.00
2022-10-31T00:32:16.310Z,0.00
2022-10-31T00:33:16.563Z,0.00
2022-10-31T00:34:16.768Z,0.00
2022-10-31T00:35:17.122Z,0.00
2022-10-31T00:36:17.327Z,0.00
2022-10-31T00:37:17.683Z,0.00
2022-10-31T00:38:17.905Z,0.00
2022-10-31T00:39:18.158Z,0.00
2022-10-31T00:40:18.377Z,0.00
2022-10-31T00:41:18.729Z,0.00
2022-10-31T00:42:19.086Z,0.00
2022-10-31T00:43:19.333Z,0.00
2022-10-31T00:44:19.577Z,0.00
2022-10-31T00:45:19.812Z,0.00
2022-10-31T00:46:20.052Z,0.00
2022-10-31T00:47:20.263Z,0.00
2022-10-31T00:48:20.659Z,0.00
2022-10-31T00:49:20.898Z,0.00
2022-10-31T00:50:21.119Z,0.00
2022-10-31T00:51:21.489Z,0.00
2022-10-31T00:52:21.741Z,0.00
2022-10-31T00:53:21.992Z,0.00
2022-10-31T00:54:22.212Z,0.00
2022-10-31T00:55:22.572Z,0.00
2022-10-31T00:56:22.830Z,0.00
2022-10-31T00:57:23.070Z,0.00
2022-10-31T00:58:23.330Z,0.00
2022-10-31T00:59:23.580Z,0.00
2022-10-31T01:00:23.838Z,0.00
2022-10-31T01:01:24.237Z,0.00
2022-10-31T01:02:24.627Z,0.00
2022-10-31T01:03:24.667Z,0.00
2022-10-31T01:04:24.898Z,0.00
2022-10-31T01:05:25.155Z,0.00
2022-10-31T01:06:25.395Z,0.00
2022-10-31T01:07:25.611Z,0.00
2022-10-31T01:08:25.866Z,0.00
2022-10-31T01:09:26.131Z,0.00
2022-10-31T01:10:26.366Z,0.00
2022-10-31T01:11:26.609Z,0.00
2022-10-31T01:12:26.896Z,0.00
2022-10-31T01:13:27.117Z,0.00
2022-10-31T01:14:27.535Z,0.00
2022-10-31T01:15:27.764Z,0.00
2022-10-31T01:16:28.004Z,0.00
2022-10-31T01:17:28.255Z,20.00
2022-10-31T01:18:28.488Z,20.00
2022-10-31T01:19:28.797Z,0.00
2022-10-31T01:20:29.078Z,0.00
2022-10-31T01:21:29.316Z,0.00
2022-10-31T01:22:29.597Z,0.00
2022-10-31T01:23:29.808Z,0.00
2022-10-31T01:24:30.059Z,0.00
2022-10-31T01:25:30.357Z,0.00
2022-10-31T01:26:30.594Z,0.00
2022-10-31T01:27:30.860Z,0.00
2022-10-31T01:28:31.155Z,0.00
2022-10-31T01:29:31.404Z,0.00
2022-10-31T01:30:31.631Z,0.00
2022-10-31T01:31:31.841Z,0.00
2022-10-31T01:32:32.178Z,0.00
2022-10-31T01:33:32.570Z,0.00
2022-10-31T01:34:32.804Z,0.00
2022-10-31T01:35:33.151Z,0.00
2022-10-31T01:36:33.361Z,0.00
2022-10-31T01:37:33.729Z,0.00
2022-10-31T01:38:33.963Z,0.00
2022-10-31T01:39:34.170Z,0.00
2022-10-31T01:40:34.549Z,0.00
2022-10-31T01:41:34.779Z,0.00
2022-10-31T01:42:35.125Z,0.00
2022-10-31T01:43:35.491Z,0.00
2022-10-31T01:44:35.713Z,0.00
2022-10-31T01:45:36.028Z,0.00
2022-10-31T01:46:36.371Z,0.00
2022-10-31T01:47:36.745Z,0.00
2022-10-31T01:48:37.010Z,0.00
2022-10-31T01:49:37.261Z,0.00
2022-10-31T01:50:37.490Z,0.00
2022-10-31T01:51:37.725Z,0.00
2022-10-31T01:52:37.957Z,0.00
2022-10-31T01:53:38.207Z,0.00
2022-10-31T01:54:38.415Z,0.00
2022-10-31T01:55:38.704Z,0.00
2022-10-31T01:56:38.905Z,0.00
2022-10-31T01:57:39.296Z,0.00
2022-10-31T01:58:39.606Z,0.00
2022-10-31T01:59:39.849Z,0.00
2022-10-31T02:00:40.206Z,0.00
2022-10-31T02:01:40.508Z,0.00
2022-10-31T02:02:40.970Z,0.00
2022-10-31T02:03:41.097Z,0.00
2022-10-31T02:04:41.457Z,0.00
2022-10-31T02:05:41.672Z,0.00
2022-10-31T02:06:42.024Z,0.00
2022-10-31T02:07:42.323Z,0.00
2022-10-31T02:08:42.564Z,0.00
2022-10-31T02:09:42.769Z,0.00
2022-10-31T02:10:43.121Z,0.00
2022-10-31T02:11:43.478Z,0.00
2022-10-31T02:12:43.720Z,0.00
2022-10-31T02:13:43.931Z,0.00
2022-10-31T02:14:44.296Z,0.00
2022-10-31T02:15:44.500Z,0.00
2022-10-31T02:16:44.789Z,0.00
2022-10-31T02:17:45.020Z,0.00
2022-10-31T02:18:45.271Z,0.00
2022-10-31T02:19:45.499Z,0.00
2022-10-31T02:20:45.871Z,0.00
2022-10-31T02:21:46.133Z,0.00
2022-10-31T02:22:46.365Z,0.00
2022-10-31T02:23:49.499Z,0.00
2022-10-31T02:24:46.864Z,0.00
2022-10-31T02:25:47.213Z,0.00
2022-10-31T02:26:47.563Z,0.00
2022-10-31T02:27:47.885Z,0.00
2022-10-31T02:28:48.247Z,0.00
2022-10-31T02:29:48.521Z,0.00
2022-10-31T02:30:48.784Z,0.00
2022-10-31T02:31:49.024Z,0.00
2022-10-31T02:32:49.265Z,0.00
2022-10-31T02:33:49.513Z,0.00
2022-10-31T02:34:49.714Z,0.00
2022-10-31T02:35:50.072Z,0.00
2022-10-31T02:36:50.333Z,0.00
2022-10-31T02:37:50.578Z,0.00
2022-10-31T02:38:50.794Z,0.00
2022-10-31T02:39:51.158Z,0.00
2022-10-31T02:40:51.393Z,0.00
2022-10-31T02:41:51.762Z,0.00
2022-10-31T02:42:51.978Z,0.00
2022-10-31T02:43:52.317Z,0.00
2022-10-31T02:44:52.580Z,0.00
2022-10-31T02:45:52.810Z,0.00
2022-10-31T02:46:53.167Z,0.00
2022-10-31T02:47:53.415Z,0.00
2022-10-31T02:48:53.619Z,0.00
2022-10-31T02:49:53.969Z,0.00
2022-10-31T02:50:54.331Z,0.00
2022-10-31T02:51:54.588Z,0.00
2022-10-31T02:52:54.822Z,0.00
2022-10-31T02:53:55.040Z,0.00
2022-10-31T02:54:55.401Z,0.00
2022-10-31T02:55:55.625Z,0.00
2022-10-31T02:56:55.973Z,0.00
2022-10-31T02:57:56.357Z,0.00
2022-10-31T02:58:56.562Z,0.00
2022-10-31T02:59:56.898Z,0.00
2022-10-31T03:00:57.205Z,0.00
2022-10-31T03:01:57.537Z,0.00
2022-10-31T03:02:58.034Z,20.00
2022-10-31T03:03:58.021Z,0.00
2022-10-31T03:04:58.264Z,0.00
2022-10-31T03:05:58.603Z,0.00
2022-10-31T03:06:58.963Z,0.00
2022-10-31T03:07:59.234Z,0.00
2022-10-31T03:08:59.545Z,0.00
2022-10-31T03:09:59.803Z,0.00
2022-10-31T03:11:00.054Z,0.00
2022-10-31T03:12:00.319Z,0.00
2022-10-31T03:13:00.875Z,0.00
2022-10-31T03:14:00.863Z,0.00
2022-10-31T03:15:01.105Z,0.00
2022-10-31T03:16:01.338Z,0.00
2022-10-31T03:17:01.624Z,0.00
2022-10-31T03:18:02.393Z,20.00
2022-10-31T03:19:02.162Z,20.00
2022-10-31T03:20:02.436Z,20.00
2022-10-31T03:21:02.706Z,20.00
2022-10-31T03:22:03.245Z,20.00
2022-10-31T03:23:03.186Z,20.00
2022-10-31T03:24:03.515Z,20.00
2022-10-31T03:25:03.808Z,16.00
2022-10-31T03:26:04.048Z,16.00
2022-10-31T03:27:04.284Z,16.00
2022-10-31T03:28:05.106Z,16.00
2022-10-31T03:29:05.058Z,16.00
2022-10-31T03:30:05.238Z,16.00
2022-10-31T03:31:07.354Z,16.00
2022-10-31T03:32:05.750Z,16.00
2022-10-31T03:33:05.991Z,16.00
2022-10-31T03:34:06.279Z,0.00
2022-10-31T03:35:06.489Z,0.00
2022-10-31T03:36:06.869Z,0.00
2022-10-31T03:37:07.109Z,0.00
2022-10-31T03:38:08.065Z,0.00
2022-10-31T03:39:07.651Z,0.00
2022-10-31T03:40:07.890Z,0.00
2022-10-31T03:41:08.160Z,0.00
2022-10-31T03:42:08.455Z,0.00
2022-10-31T03:43:08.789Z,0.00
2022-10-31T03:44:09.029Z,0.00
2022-10-31T03:45:09.287Z,0.00
2022-10-31T03:46:09.557Z,0.00
2022-10-31T03:47:09.808Z,0.00
2022-10-31T03:48:10.114Z,0.00
2022-10-31T03:49:10.391Z,0.00
2022-10-31T03:50:10.625Z,0.00
2022-10-31T03:51:10.890Z,0.00
2022-10-31T03:52:11.154Z,0.00
2022-10-31T03:53:11.365Z,0.00
2022-10-31T03:54:11.704Z,0.00
2022-10-31T03:55:12.097Z,0.00
2022-10-31T03:56:12.355Z,0.00
2022-10-31T03:57:12.575Z,0.00
2022-10-31T03:58:13.003Z,0.00
2022-10-31T03:59:13.265Z,0.00
2022-10-31T04:00:13.475Z,0.00
2022-10-31T04:01:13.952Z,0.00
2022-10-31T04:02:14.195Z,0.00
2022-10-31T04:03:14.399Z,0.00
2022-10-31T04:04:14.604Z,0.00
2022-10-31T04:05:14.966Z,0.00
2022-10-31T04:06:15.190Z,0.00
2022-10-31T04:07:15.516Z,0.00
2022-10-31T04:08:15.867Z,0.00
2022-10-31T04:09:16.078Z,0.00
2022-10-31T04:10:16.411Z,0.00
2022-10-31T04:11:16.749Z,0.00
2022-10-31T04:12:17.107Z,0.00
2022-10-31T04:14:17.719Z,0.00
2022-10-31T04:15:18.040Z,0.00
2022-10-31T04:16:18.439Z,0.00
2022-10-31T04:17:18.661Z,0.00
2022-10-31T04:18:19.027Z,0.00
2022-10-31T04:19:19.267Z,0.00
2022-10-31T04:20:19.491Z,0.00
2022-10-31T04:21:19.840Z,0.00
2022-10-31T04:22:20.174Z,0.00
2022-10-31T04:23:20.497Z,0.00
2022-10-31T04:24:20.844Z,0.00
2022-10-31T04:25:21.171Z,0.00
2022-10-31T04:26:21.501Z,0.00
2022-10-31T04:27:21.841Z,0.00
2022-10-31T04:28:22.160Z,0.00
2022-10-31T04:29:22.545Z,0.00
2022-10-31T04:30:22.765Z,0.00
2022-10-31T04:31:23.013Z,0.00
2022-10-31T04:32:23.242Z,0.00
2022-10-31T04:33:23.625Z,0.00
2022-10-31T04:34:23.843Z,0.00
2022-10-31T04:35:24.197Z,0.00
2022-10-31T04:36:24.584Z,0.00
2022-10-31T04:37:24.826Z,0.00
2022-10-31T04:38:25.035Z,0.00
2022-10-31T04:39:26.738Z,0.00
2022-10-31T04:40:25.615Z,0.00
2022-10-31T04:41:26.003Z,0.00
2022-10-31T04:42:26.223Z,0.00
2022-10-31T04:43:26.609Z,0.00
2022-10-31T04:44:26.826Z,0.00
2022-10-31T04:45:27.148Z,0.00
2022-10-31T04:46:27.476Z,0.00
2022-10-31T04:47:27.780Z,0.00
2022-10-31T04:48:28.108Z,0.00
2022-10-31T04:49:28.428Z,0.00
2022-10-31T04:50:28.798Z,0.00
2022-10-31T04:51:29.061Z,0.00
2022-10-31T04:52:29.338Z,0.00
2022-10-31T04:53:29.639Z,0.00
2022-10-31T04:54:29.953Z,0.00
2022-10-31T04:55:30.271Z,0.00
2022-10-31T04:56:30.509Z,0.00
2022-10-31T04:57:30.834Z,0.00
2022-10-31T04:58:31.220Z,0.00
2022-10-31T04:59:31.418Z,0.00
2022-10-31T05:00:31.766Z,0.00
2022-10-31T05:01:32.186Z,0.00
2022-10-31T05:02:32.425Z,0.00
2022-10-31T05:03:32.650Z,0.00
2022-10-31T05:04:32.984Z,0.00
2022-10-31T05:05:33.314Z,0.00
2022-10-31T05:06:33.663Z,0.00
2022-10-31T05:07:33.858Z,0.00
2022-10-31T05:08:34.183Z,0.00
2022-10-31T05:09:34.513Z,0.00
2022-10-31T05:10:34.842Z,0.00
2022-10-31T05:11:35.193Z,0.00
2022-10-31T05:12:35.555Z,0.00
2022-10-31T05:13:35.797Z,0.00
2022-10-31T05:14:35.993Z,0.00
2022-10-31T05:15:36.294Z,0.00
2022-10-31T05:16:36.725Z,0.00
2022-10-31T05:17:36.934Z,0.00
2022-10-31T05:18:37.283Z,0.00
2022-10-31T05:19:37.494Z,0.00
2022-10-31T05:20:37.813Z,0.00
2022-10-31T05:21:38.143Z,0.00
2022-10-31T05:22:38.477Z,0.00
2022-10-31T05:23:38.849Z,0.00
2022-10-31T05:24:39.036Z,4.00
2022-10-31T05:25:39.366Z,4.00
2022-10-31T05:26:39.718Z,0.00
2022-10-31T05:27:40.026Z,4.00
2022-10-31T05:28:40.377Z,4.00
2022-10-31T05:29:40.700Z,4.00
2022-10-31T05:30:41.057Z,4.00
2022-10-31T05:31:41.268Z,4.00
2022-10-31T05:32:41.614Z,4.00
2022-10-31T05:33:41.979Z,4.00
2022-10-31T05:34:42.185Z,8.00
2022-10-31T05:35:42.532Z,8.00
2022-10-31T05:36:42.896Z,12.00
2022-10-31T05:37:43.149Z,12.00
2022-10-31T05:38:43.459Z,16.00
2022-10-31T05:39:43.713Z,16.00
2022-10-31T05:40:44.081Z,16.00
2022-10-31T05:41:44.210Z,24.00
2022-10-31T05:42:44.493Z,28.00
2022-10-31T05:43:44.761Z,28.00
2022-10-31T05:44:45.030Z,32.00
2022-10-31T05:45:45.271Z,36.00
2022-10-31T05:46:45.505Z,44.00
2022-10-31T05:47:45.883Z,48.00
2022-10-31T05:48:46.179Z,52.00
2022-10-31T05:49:46.403Z,60.00
2022-10-31T05:50:46.769Z,68.00
2022-10-31T05:51:46.987Z,80.00
2022-10-31T05:52:47.351Z,88.00
2022-10-31T05:53:47.554Z,100.00
2022-10-31T05:54:47.894Z,116.00
2022-10-31T05:55:48.265Z,128.00
2022-10-31T05:56:48.545Z,140.00
2022-10-31T05:57:48.777Z,156.00
2022-10-31T05:58:49.144Z,168.00
2022-10-31T05:59:54.679Z,184.00
2022-10-31T06:00:50.735Z,208.00
2022-10-31T06:01:50.066Z,228.00
2022-10-31T06:02:50.375Z,244.00
2022-10-31T06:03:50.675Z,272.00
2022-10-31T06:04:51.141Z,292.00
2022-10-31T06:05:54.986Z,312.00
2022-10-31T06:06:51.567Z,340.00
2022-10-31T06:07:51.788Z,364.00
2022-10-31T06:08:52.155Z,392.00
2022-10-31T06:09:52.433Z,424.00
2022-10-31T06:10:52.769Z,452.00
2022-10-31T06:11:53.058Z,488.00
2022-10-31T06:12:53.295Z,524.00
2022-10-31T06:13:53.556Z,560.00
2022-10-31T06:14:53.787Z,600.00
2022-10-31T06:15:54.059Z,640.00
2022-10-31T06:16:54.315Z,680.00
2022-10-31T06:17:54.577Z,724.00
2022-10-31T06:18:54.859Z,768.00
2022-10-31T06:19:55.130Z,816.00
2022-10-31T06:20:55.410Z,852.00
2022-10-31T06:21:55.742Z,892.00
2022-10-31T06:22:56.018Z,928.00
2022-10-31T06:23:56.288Z,972.00
2022-10-31T06:24:56.607Z,1008.00
2022-10-31T06:25:56.888Z,1040.00
2022-10-31T06:26:57.144Z,1076.00
2022-10-31T06:27:57.400Z,1104.00
2022-10-31T06:29:01.418Z,1140.00
2022-10-31T06:29:59.022Z,1180.00
2022-10-31T06:30:58.394Z,1224.00
2022-10-31T06:31:58.666Z,1276.00
2022-10-31T06:32:59.474Z,1320.00
2022-10-31T06:33:59.225Z,1368.00
2022-10-31T06:34:59.522Z,1412.00
2022-10-31T06:35:59.862Z,1460.00
2022-10-31T06:37:00.166Z,1488.00
2022-10-31T06:38:00.736Z,1516.00
2022-10-31T06:39:00.653Z,1552.00
2022-10-31T06:40:01.014Z,1592.00
2022-10-31T06:41:01.240Z,1628.00
2022-10-31T06:42:01.547Z,1652.00
2022-10-31T06:43:01.948Z,1676.00
2022-10-31T06:44:05.041Z,1720.00
2022-10-31T06:45:03.348Z,1760.00
2022-10-31T06:46:02.707Z,1808.00
2022-10-31T06:47:02.965Z,1868.00
2022-10-31T06:48:16.676Z,1912.00
2022-10-31T06:49:04.580Z,1948.00
2022-10-31T06:50:03.936Z,1980.00
2022-10-31T06:51:04.181Z,2024.00
2022-10-31T06:52:04.455Z,2076.00
2022-10-31T06:53:04.714Z,2124.00
2022-10-31T06:54:04.977Z,2176.00
2022-10-31T06:55:05.230Z,2216.00
2022-10-31T06:56:05.497Z,2260.00
2022-10-31T06:57:05.738Z,2300.00
2022-10-31T06:58:06.515Z,2356.00
2022-10-31T06:59:06.311Z,2404.00
2022-10-31T07:00:06.578Z,2456.00
2022-10-31T07:01:06.948Z,2500.00
2022-10-31T07:02:07.193Z,2544.00
2022-10-31T07:03:07.389Z,2572.00
2022-10-31T07:04:07.642Z,2580.00
2022-10-31T07:05:07.890Z,2588.00
2022-10-31T07:06:08.150Z,2608.00
2022-10-31T07:07:08.380Z,2636.00
2022-10-31T07:08:08.718Z,2684.00
2022-10-31T07:09:09.002Z,2748.00
2022-10-31T07:10:09.351Z,2812.00
2022-10-31T07:11:09.488Z,2904.00
2022-10-31T07:12:09.742Z,2968.00
2022-10-31T07:13:09.968Z,3056.00
2022-10-31T07:14:10.254Z,3128.00
2022-10-31T07:15:10.594Z,3192.00
2022-10-31T07:16:10.834Z,3228.00
2022-10-31T07:17:11.153Z,3272.00
2022-10-31T07:18:11.455Z,3304.00
2022-10-31T07:19:11.725Z,3312.00
2022-10-31T07:20:12.008Z,3324.00
2022-10-31T07:21:12.268Z,3344.00
2022-10-31T07:22:12.548Z,3384.00
2022-10-31T07:23:12.845Z,3432.00
2022-10-31T07:24:13.104Z,3480.00
2022-10-31T07:25:13.387Z,3604.00
2022-10-31T07:26:13.636Z,3696.00
2022-10-31T07:27:13.950Z,3760.00
2022-10-31T07:28:14.210Z,3824.00
2022-10-31T07:29:14.500Z,3876.00
2022-10-31T07:30:14.801Z,3916.00
2022-10-31T07:31:15.048Z,3936.00
2022-10-31T07:32:15.296Z,3948.00
2022-10-31T07:33:15.541Z,3960.00
2022-10-31T07:34:15.790Z,3964.00
2022-10-31T07:35:16.051Z,3976.00
2022-10-31T07:36:16.310Z,3960.00
2022-10-31T07:37:16.591Z,3952.00
2022-10-31T07:38:16.877Z,3952.00
2022-10-31T07:39:17.171Z,3972.00
2022-10-31T07:40:17.470Z,4000.00
2022-10-31T07:41:17.739Z,4012.00
2022-10-31T07:42:18.044Z,4000.00
2022-10-31T07:43:18.319Z,4044.00
2022-10-31T07:44:18.562Z,4048.00
2022-10-31T07:45:18.892Z,4060.00
2022-10-31T07:46:19.872Z,4048.00
2022-10-31T07:47:19.311Z,4048.00
2022-10-31T07:48:19.555Z,4032.00
2022-10-31T07:49:19.815Z,4004.00
2022-10-31T07:50:20.129Z,3960.00
2022-10-31T07:51:20.405Z,3912.00
2022-10-31T07:52:20.649Z,3868.00
2022-10-31T07:53:20.906Z,3852.00
2022-10-31T07:54:21.194Z,3772.00
2022-10-31T07:55:21.458Z,3684.00
2022-10-31T07:56:21.717Z,3604.00
2022-10-31T07:57:25.096Z,3520.00
2022-10-31T07:58:22.316Z,3400.00
2022-10-31T07:59:22.586Z,3276.00
2022-10-31T08:00:22.863Z,3156.00
2022-10-31T08:01:23.108Z,3068.00
2022-10-31T08:02:23.389Z,2952.00
2022-10-31T08:03:23.669Z,2828.00
2022-10-31T08:04:23.952Z,2720.00
2022-10-31T08:05:24.198Z,2612.00
2022-10-31T08:06:24.470Z,2520.00
2022-10-31T08:07:24.837Z,2460.00
2022-10-31T08:08:24.969Z,2552.00
2022-10-31T08:09:25.280Z,2652.00
2022-10-31T08:10:25.559Z,2728.00
2022-10-31T08:11:25.822Z,2796.00
2022-10-31T08:12:26.120Z,2848.00
2022-10-31T08:13:26.372Z,2896.00
2022-10-31T08:14:26.685Z,2940.00
2022-10-31T08:15:26.940Z,2956.00
2022-10-31T08:16:27.182Z,2980.00
2022-10-31T08:17:27.442Z,3044.00
2022-10-31T08:18:27.733Z,3060.00
2022-10-31T08:19:27.984Z,2992.00
2022-10-31T08:20:28.255Z,2988.00
2022-10-31T08:21:28.496Z,2828.00
2022-10-31T08:22:28.735Z,2852.00
2022-10-31T08:23:28.992Z,2796.00
2022-10-31T08:24:29.304Z,2656.00
2022-10-31T08:25:32.266Z,2616.00
2022-10-31T08:26:30.840Z,2572.00
2022-10-31T08:27:30.138Z,2544.00
2022-10-31T08:28:30.407Z,2324.00
2022-10-31T08:29:30.652Z,2140.00
2022-10-31T08:30:30.900Z,2188.00
2022-10-31T08:31:33.916Z,2196.00
2022-10-31T08:32:31.438Z,2216.00
2022-10-31T08:33:31.679Z,2108.00
2022-10-31T08:34:31.922Z,2092.00
2022-10-31T08:35:32.190Z,2020.00
2022-10-31T08:36:32.448Z,1976.00
2022-10-31T08:37:32.695Z,1872.00
2022-10-31T08:38:32.938Z,1816.00
2022-10-31T08:39:33.178Z,1824.00
2022-10-31T08:40:33.459Z,1804.00
2022-10-31T08:41:33.707Z,1696.00
2022-10-31T08:42:33.978Z,1836.00
2022-10-31T08:43:35.043Z,1856.00
2022-10-31T08:44:34.492Z,1960.00
2022-10-31T08:45:34.762Z,1980.00
2022-10-31T08:46:35.033Z,2088.00
2022-10-31T08:47:35.303Z,2192.00
2022-10-31T08:48:35.583Z,2232.00
2022-10-31T08:49:35.848Z,2244.00
2022-10-31T08:50:36.133Z,2244.00
2022-10-31T08:51:36.384Z,2268.00
2022-10-31T08:53:03.176Z,2276.00
